Portola Hills, California
Current Conditions -  °F | °C
As of 9:53 PM on Wednesday 22 Oct 2014 (Local Time) from KSNA Reporting Station
Clear Clear  
Wind Chill: 72°   Ceiling: Unl
Heat Index: 72°   Visibility: 9mi
Dew Point: 64°   Wind: 0mph
Humidity: 76%   Direction: NA
Pressure: 29.95"   Gusts: NA
Location:  33.6153°N, 117.532°W
Report Text: KSNA 230453Z 00000KT 9SM CLR 22/18 A2995 RMK AO2 SLP141 T02220178
Loading
Personal Weather Stations






























Interactive Weather Map
Tropical Storm Tracking
New forecast layout! Learn more

10-Day Weather Forecast

Advertisements
Track Severe Weather on mobile